createdAt,value
2019-03-06T00:00:36.114Z,99853.83
2019-03-06T00:01:11.076Z,99843.82
2019-03-06T00:01:42.384Z,99850.80
2019-03-06T00:02:13.560Z,99846.03
2019-03-06T00:02:44.769Z,99846.03
2019-03-06T00:03:16.018Z,99848.63
2019-03-06T00:03:47.230Z,99852.96
2019-03-06T00:04:19.416Z,99845.14
2019-03-06T00:04:50.723Z,99853.83
2019-03-06T00:05:21.896Z,99853.83
2019-03-06T00:05:53.121Z,99823.48
2019-03-06T00:06:24.292Z,99861.25
2019-03-06T00:06:55.497Z,99839.72
2019-03-06T00:07:26.661Z,99839.72
2019-03-06T00:07:57.853Z,99854.27
2019-03-06T00:08:29.342Z,99866.45
2019-03-06T00:09:00.544Z,99866.45
2019-03-06T00:09:31.698Z,99862.09
2019-03-06T00:10:24.788Z,99851.52
2019-03-06T00:10:55.955Z,99835.36
2019-03-06T00:11:27.258Z,99835.36
2019-03-06T00:11:58.424Z,99853.36
2019-03-06T00:12:29.616Z,99859.95
2019-03-06T00:13:00.823Z,99859.06
2019-03-06T00:13:32.003Z,99862.61
2019-03-06T00:14:03.374Z,99862.61
2019-03-06T00:14:34.561Z,99861.19
2019-03-06T00:15:06.839Z,99850.23
2019-03-06T00:15:39.920Z,99870.90
2019-03-06T00:16:11.093Z,99877.42
2019-03-06T00:16:42.267Z,99863.84
2019-03-06T00:17:13.739Z,99865.69
2019-03-06T00:17:45.013Z,99865.69
2019-03-06T00:18:16.197Z,99861.77
2019-03-06T00:18:47.447Z,99863.09
2019-03-06T00:19:18.627Z,99868.30
2019-03-06T00:19:49.821Z,99870.92
2019-03-06T00:20:21.003Z,99870.92
2019-03-06T00:20:52.159Z,99870.90
2019-03-06T00:21:23.321Z,99868.36
2019-03-06T00:21:54.494Z,99868.36
2019-03-06T00:22:25.658Z,99874.88
2019-03-06T00:22:56.825Z,99874.88
2019-03-06T00:23:28.005Z,99872.27
2019-03-06T00:23:59.455Z,99872.69
2019-03-06T00:24:30.611Z,99872.69
2019-03-06T00:25:03.008Z,99870.97
2019-03-06T00:25:35.240Z,99880.93
2019-03-06T00:26:06.389Z,99876.19
2019-03-06T00:26:37.562Z,99881.40
2019-03-06T00:27:08.733Z,99886.14
2019-03-06T00:27:39.893Z,99886.14
2019-03-06T00:28:11.072Z,99887.50
2019-03-06T00:28:42.216Z,99887.45
2019-03-06T00:29:14.360Z,99889.64
2019-03-06T00:29:46.531Z,99886.63
2019-03-06T00:30:18.969Z,99892.73
2019-03-06T00:30:50.236Z,99888.41
2019-03-06T00:31:21.424Z,99867.30
2019-03-06T00:31:52.996Z,99890.23
2019-03-06T00:32:25.151Z,99890.23
2019-03-06T00:32:56.346Z,99871.75
2019-03-06T00:33:27.512Z,99887.69
2019-03-06T00:33:58.662Z,99887.69
2019-03-06T00:34:29.877Z,99898.17
2019-03-06T00:35:01.579Z,99890.66
2019-03-06T00:35:43.526Z,99878.80
2019-03-06T00:36:16.379Z,99878.80
2019-03-06T00:36:47.584Z,99893.38
2019-03-06T00:37:18.761Z,99893.38
2019-03-06T00:37:49.993Z,99891.61
2019-03-06T00:38:21.171Z,99871.39
2019-03-06T00:38:52.404Z,99871.39
2019-03-06T00:39:24.188Z,99897.29
2019-03-06T00:39:57.259Z,99886.39
2019-03-06T00:40:39.135Z,99885.97
2019-03-06T00:41:21.073Z,99887.69
2019-03-06T00:41:52.350Z,99873.51
2019-03-06T00:42:23.529Z,99887.63
2019-03-06T00:42:54.722Z,99901.63
2019-03-06T00:43:25.923Z,99896.89
2019-03-06T00:43:57.077Z,99899.97
2019-03-06T00:44:28.277Z,99892.61
2019-03-06T00:44:59.482Z,99891.30
2019-03-06T00:45:30.718Z,99891.30
2019-03-06T00:46:01.872Z,99891.30
2019-03-06T00:46:33.362Z,99896.52
2019-03-06T00:47:04.508Z,99896.10
2019-03-06T00:47:35.777Z,99875.34
2019-03-06T00:48:07.166Z,99882.41
2019-03-06T00:48:38.542Z,99882.41
2019-03-06T00:49:09.867Z,99883.71
2019-03-06T00:49:41.230Z,99887.63
2019-03-06T00:50:12.532Z,99887.63
2019-03-06T00:50:43.891Z,99898.30
2019-03-06T00:51:15.206Z,99897.36
2019-03-06T00:51:46.557Z,99907.79
2019-03-06T00:52:18.869Z,99908.20
2019-03-06T00:52:50.240Z,99908.20
2019-03-06T00:53:21.685Z,99906.44
2019-03-06T00:53:53.050Z,99910.77
2019-03-06T00:54:24.400Z,99910.77
2019-03-06T00:54:55.729Z,99911.65
2019-03-06T00:55:27.053Z,99911.65
2019-03-06T00:55:58.403Z,99906.00
2019-03-06T00:56:29.750Z,99892.72
2019-03-06T00:57:01.092Z,99908.16
2019-03-06T00:57:32.420Z,99922.55
2019-03-06T00:58:03.782Z,99910.40
2019-03-06T00:58:35.210Z,99910.40
2019-03-06T00:59:06.553Z,99914.26
2019-03-06T00:59:37.895Z,99905.77
2019-03-06T01:00:20.393Z,99915.61
2019-03-06T01:00:51.934Z,99908.26
2019-03-06T01:01:23.278Z,99917.39
2019-03-06T01:01:54.592Z,99917.39
2019-03-06T01:02:25.944Z,99921.77
2019-03-06T01:02:57.286Z,99913.42
2019-03-06T01:03:29.046Z,99921.25
2019-03-06T01:04:00.402Z,99901.86
2019-03-06T01:04:32.743Z,99901.86
2019-03-06T01:05:07.215Z,99920.78
2019-03-06T01:05:38.550Z,99897.46
2019-03-06T01:06:09.866Z,99917.28
2019-03-06T01:06:41.241Z,99934.70
2019-03-06T01:07:12.588Z,99921.20
2019-03-06T01:07:43.922Z,99921.20
2019-03-06T01:08:15.304Z,99919.89
2019-03-06T01:08:46.658Z,99918.17
2019-03-06T01:09:17.867Z,99918.17
2019-03-06T01:09:49.242Z,99922.50
2019-03-06T01:10:20.559Z,99921.72
2019-03-06T01:10:51.925Z,99921.72
2019-03-06T01:11:23.431Z,99917.75
2019-03-06T01:11:54.795Z,99922.13
2019-03-06T01:12:26.005Z,99912.05
2019-03-06T01:12:57.349Z,99926.88
2019-03-06T01:13:28.656Z,99926.88
2019-03-06T01:14:00.020Z,99916.74
2019-03-06T01:14:31.332Z,99928.19
2019-03-06T01:15:05.603Z,99928.19
2019-03-06T01:15:36.926Z,99918.81
2019-03-06T01:16:08.293Z,99918.81
2019-03-06T01:16:39.603Z,99910.10
2019-03-06T01:17:10.983Z,99927.77
2019-03-06T01:17:42.303Z,99921.05
2019-03-06T01:18:13.670Z,99921.05
2019-03-06T01:18:46.012Z,99918.03
2019-03-06T01:19:17.465Z,99933.88
2019-03-06T01:19:48.785Z,99933.88
2019-03-06T01:20:20.135Z,99929.48
2019-03-06T01:20:51.479Z,99935.64
2019-03-06T01:21:22.809Z,99935.64
2019-03-06T01:21:54.184Z,99921.52
2019-03-06T01:22:25.536Z,99931.31
2019-03-06T01:22:59.490Z,99933.94
2019-03-06T01:23:30.883Z,99932.63
2019-03-06T01:24:02.432Z,99937.42
2019-03-06T01:24:33.756Z,99937.42
2019-03-06T01:25:13.086Z,99935.23
2019-03-06T01:25:44.394Z,99932.63
2019-03-06T01:26:15.752Z,99932.63
2019-03-06T01:26:46.966Z,99930.45
2019-03-06T01:27:18.238Z,99940.03
2019-03-06T01:27:49.631Z,99940.03
2019-03-06T01:28:21.010Z,99933.51
2019-03-06T01:28:52.328Z,99929.54
2019-03-06T01:29:23.994Z,99933.52
2019-03-06T01:29:55.304Z,99937.02
2019-03-06T01:30:26.872Z,99925.87
2019-03-06T01:30:58.196Z,99942.66
2019-03-06T01:31:29.728Z,99942.66
2019-03-06T01:32:01.042Z,99933.70
2019-03-06T01:32:32.612Z,99933.70
2019-03-06T01:33:08.680Z,99930.23
2019-03-06T01:33:45.809Z,99944.84
2019-03-06T01:34:35.256Z,99944.48
2019-03-06T01:35:22.194Z,99941.88
2019-03-06T01:36:01.085Z,99941.88
2019-03-06T01:36:34.559Z,99926.39
2019-03-06T01:37:22.512Z,99930.30
2019-03-06T01:37:58.921Z,99930.30
2019-03-06T01:38:39.297Z,99952.30
2019-03-06T01:39:28.909Z,99952.30
2019-03-06T01:40:02.155Z,99947.99
2019-03-06T01:40:47.356Z,99947.99
2019-03-06T01:41:32.407Z,99952.80
2019-03-06T01:42:05.635Z,99947.52
2019-03-06T01:42:38.863Z,99954.98
2019-03-06T01:43:14.959Z,99952.39
2019-03-06T01:43:54.147Z,99951.98
2019-03-06T01:44:30.293Z,99957.61
2019-03-06T01:45:01.885Z,99957.61
2019-03-06T01:45:33.269Z,99951.07
2019-03-06T01:46:04.697Z,99950.19
2019-03-06T01:46:36.069Z,99950.19
2019-03-06T01:47:07.473Z,99962.34
2019-03-06T01:47:38.899Z,99962.34
2019-03-06T01:48:10.241Z,99960.12
2019-03-06T01:48:41.635Z,99964.06
2019-03-06T01:49:13.027Z,99966.25
2019-03-06T01:49:44.406Z,99966.25
2019-03-06T01:50:15.626Z,99964.13
2019-03-06T01:50:47.200Z,99970.23
2019-03-06T01:51:18.512Z,99970.23
2019-03-06T01:51:49.892Z,99968.09
2019-03-06T01:52:21.183Z,99968.09
2019-03-06T01:52:52.538Z,99976.81
2019-03-06T01:53:23.851Z,99946.55
2019-03-06T01:53:55.230Z,99978.53
2019-03-06T01:54:26.530Z,99972.02
2019-03-06T01:54:57.796Z,99973.78
2019-03-06T01:55:29.090Z,99974.67
2019-03-06T01:56:00.451Z,99976.45
2019-03-06T01:56:31.982Z,99953.14
2019-03-06T01:57:03.334Z,99978.17
2019-03-06T01:57:34.739Z,99978.17
2019-03-06T01:58:06.106Z,99976.39
2019-03-06T01:58:37.412Z,99986.83
2019-03-06T01:59:08.776Z,99978.59
2019-03-06T01:59:40.082Z,99975.99
2019-03-06T02:00:15.390Z,99959.19
2019-03-06T02:00:46.716Z,99981.14
2019-03-06T02:01:18.086Z,99961.75
2019-03-06T02:01:49.386Z,99961.75
2019-03-06T02:02:20.744Z,99985.45
2019-03-06T02:02:52.055Z,99989.80
2019-03-06T02:03:23.416Z,99989.80
2019-03-06T02:03:54.736Z,99993.71
2019-03-06T02:04:26.093Z,99999.34
2019-03-06T02:04:57.413Z,99991.99
2019-03-06T02:05:28.991Z,99991.99
2019-03-06T02:06:00.297Z,99988.06
2019-03-06T02:06:31.883Z,99997.62
2019-03-06T02:07:03.699Z,100011.54
2019-03-06T02:07:35.045Z,99980.34
2019-03-06T02:08:06.335Z,100000.63
2019-03-06T02:08:37.737Z,99988.23
2019-03-06T02:09:09.050Z,99990.67
2019-03-06T02:09:40.737Z,100001.52
2019-03-06T02:10:13.137Z,100003.24
2019-03-06T02:10:44.611Z,100001.47
2019-03-06T02:11:15.934Z,100005.80
2019-03-06T02:11:47.297Z,99989.48
2019-03-06T02:12:18.620Z,100009.77
2019-03-06T02:12:49.992Z,100009.77
2019-03-06T02:13:22.392Z,99989.06
2019-03-06T02:13:53.776Z,100007.98
2019-03-06T02:14:25.150Z,100007.16
2019-03-06T02:14:56.517Z,100012.38
2019-03-06T02:15:27.832Z,100017.17
2019-03-06T02:15:59.479Z,100017.17
2019-03-06T02:16:30.783Z,100020.20
2019-03-06T02:17:02.436Z,100018.42
2019-03-06T02:17:33.754Z,100004.66
2019-03-06T02:18:05.122Z,100004.66
2019-03-06T02:18:36.436Z,100017.05
2019-03-06T02:19:07.796Z,100021.86
2019-03-06T02:19:39.496Z,100013.50
2019-03-06T02:20:15.654Z,100016.65
2019-03-06T02:20:47.966Z,100013.63
2019-03-06T02:21:19.316Z,100013.63
2019-03-06T02:21:50.678Z,100025.02
2019-03-06T02:22:22.214Z,100025.02
2019-03-06T02:22:53.576Z,100012.30
2019-03-06T02:23:25.876Z,100021.58
2019-03-06T02:23:57.219Z,100028.16
2019-03-06T02:24:28.834Z,100017.17
2019-03-06T02:25:00.340Z,100019.38
2019-03-06T02:25:31.880Z,100019.38
2019-03-06T02:26:03.219Z,100031.65
2019-03-06T02:26:34.567Z,100029.92
2019-03-06T02:27:05.907Z,100025.55
2019-03-06T02:27:37.243Z,100025.55
2019-03-06T02:28:08.586Z,100034.20
2019-03-06T02:28:39.922Z,100034.20
2019-03-06T02:29:11.348Z,100028.52
2019-03-06T02:29:42.677Z,100032.41
2019-03-06T02:30:20.290Z,100033.71
2019-03-06T02:30:51.636Z,100030.63
2019-03-06T02:31:23.197Z,100030.63
2019-03-06T02:31:54.522Z,100030.22
2019-03-06T02:32:25.886Z,100030.22
2019-03-06T02:32:57.185Z,100029.75
2019-03-06T02:33:28.535Z,100027.95
2019-03-06T02:33:59.899Z,100035.44
2019-03-06T02:34:32.255Z,100035.44
2019-03-06T02:35:04.675Z,100037.23
2019-03-06T02:35:36.036Z,100037.23
2019-03-06T02:36:07.345Z,100035.98
2019-03-06T02:36:38.689Z,100040.36
2019-03-06T02:37:10.010Z,100039.91
2019-03-06T02:37:41.389Z,100039.06
2019-03-06T02:38:12.929Z,100040.31
2019-03-06T02:38:44.291Z,100040.31
2019-03-06T02:39:15.614Z,100039.84
2019-03-06T02:39:46.955Z,100039.84
2019-03-06T02:40:18.280Z,100024.33
2019-03-06T02:40:49.708Z,100047.12
2019-03-06T02:41:21.074Z,100040.05
2019-03-06T02:41:52.393Z,100040.05
2019-03-06T02:42:23.734Z,100046.09
2019-03-06T02:42:55.051Z,100044.77
2019-03-06T02:43:26.408Z,100049.99
2019-03-06T02:43:57.735Z,100031.81
2019-03-06T02:44:29.432Z,100031.81
2019-03-06T02:45:00.940Z,100045.08
2019-03-06T02:45:33.800Z,100043.75
2019-03-06T02:46:05.162Z,100047.69
2019-03-06T02:46:36.458Z,100033.95
2019-03-06T02:47:07.762Z,100033.95
2019-03-06T02:47:40.116Z,100049.47
2019-03-06T02:48:11.427Z,100027.79
2019-03-06T02:48:43.901Z,100041.44
2019-03-06T02:49:15.216Z,100039.66
2019-03-06T02:49:46.592Z,100039.66
2019-03-06T02:50:18.211Z,100027.50
2019-03-06T02:50:49.551Z,100027.50
2019-03-06T02:51:20.873Z,100039.23
2019-03-06T02:51:52.356Z,100055.64
2019-03-06T02:52:23.635Z,100045.84
2019-03-06T02:52:55.016Z,100042.66
2019-03-06T02:53:26.302Z,100042.66
2019-03-06T02:53:59.038Z,100055.44
2019-03-06T02:54:30.359Z,100055.44
2019-03-06T02:55:01.878Z,100033.76
2019-03-06T02:55:33.178Z,100033.76
2019-03-06T02:56:04.562Z,100054.00
2019-03-06T02:56:35.869Z,100054.00
2019-03-06T02:57:07.255Z,100046.93
2019-03-06T02:57:40.537Z,100058.33
2019-03-06T02:58:13.818Z,100063.95
2019-03-06T02:58:49.974Z,100063.95
2019-03-06T02:59:23.271Z,100045.47
2019-03-06T02:59:56.574Z,100060.80
2019-03-06T03:00:46.343Z,100060.80
2019-03-06T03:01:31.907Z,100050.63
2019-03-06T03:02:05.278Z,100057.28
2019-03-06T03:02:38.549Z,100035.19
2019-03-06T03:03:12.756Z,100058.17
2019-03-06T03:03:49.883Z,100059.97
2019-03-06T03:04:24.185Z,100059.97
2019-03-06T03:05:06.355Z,100063.55
2019-03-06T03:05:39.742Z,100063.55
2019-03-06T03:06:18.623Z,100066.12
2019-03-06T03:06:51.903Z,100064.83
2019-03-06T03:07:23.221Z,100064.83
2019-03-06T03:07:54.598Z,100066.15
2019-03-06T03:08:25.906Z,100061.33
2019-03-06T03:08:57.290Z,100067.56
2019-03-06T03:09:28.589Z,100067.56
2019-03-06T03:09:59.982Z,100070.17
2019-03-06T03:10:31.310Z,100064.02
2019-03-06T03:11:03.035Z,100049.81
2019-03-06T03:11:34.351Z,100067.51
2019-03-06T03:12:05.715Z,100067.51
2019-03-06T03:12:37.007Z,100067.09
2019-03-06T03:13:08.374Z,100070.17
2019-03-06T03:13:39.690Z,100070.17
2019-03-06T03:14:11.052Z,100062.35
2019-03-06T03:14:42.366Z,100068.45
2019-03-06T03:15:13.762Z,100071.89
2019-03-06T03:15:45.067Z,100071.89
2019-03-06T03:16:16.404Z,100071.89
2019-03-06T03:16:47.720Z,100071.08
2019-03-06T03:17:19.091Z,100068.48
2019-03-06T03:17:50.521Z,100068.48
2019-03-06T03:18:21.881Z,100066.81
2019-03-06T03:18:53.199Z,100072.94
2019-03-06T03:19:24.562Z,100072.94
2019-03-06T03:19:55.844Z,100072.52
2019-03-06T03:20:27.202Z,100054.41
2019-03-06T03:20:58.516Z,100076.48
2019-03-06T03:21:29.853Z,100076.48
2019-03-06T03:22:01.241Z,100076.44
2019-03-06T03:22:32.447Z,100079.93
2019-03-06T03:23:03.760Z,100079.93
2019-03-06T03:23:35.100Z,100081.73
2019-03-06T03:24:06.395Z,100081.73
2019-03-06T03:24:37.855Z,100085.75
2019-03-06T03:25:09.207Z,100085.75
2019-03-06T03:25:40.516Z,100069.42
2019-03-06T03:26:11.816Z,100069.42
2019-03-06T03:26:43.146Z,100087.50
2019-03-06T03:27:14.505Z,100087.50
2019-03-06T03:27:45.819Z,100091.94
2019-03-06T03:28:19.761Z,100091.52
2019-03-06T03:28:50.282Z,100096.32
2019-03-06T03:29:21.653Z,100073.05
2019-03-06T03:29:52.974Z,100073.05
2019-03-06T03:30:24.331Z,100099.42
2019-03-06T03:30:55.655Z,100095.43
2019-03-06T03:31:27.320Z,100098.41
2019-03-06T03:31:58.688Z,100098.41
2019-03-06T03:32:30.136Z,100094.47
2019-03-06T03:33:01.508Z,100103.20
2019-03-06T03:33:32.820Z,100103.20
2019-03-06T03:34:04.153Z,100099.29
2019-03-06T03:34:35.535Z,100101.82
2019-03-06T03:35:07.044Z,100096.20
2019-03-06T03:35:38.407Z,100096.20
2019-03-06T03:36:09.715Z,100093.33
2019-03-06T03:36:41.082Z,100105.75
2019-03-06T03:37:12.405Z,100105.75
2019-03-06T03:37:43.771Z,100103.59
2019-03-06T03:38:15.291Z,100095.64
2019-03-06T03:38:46.643Z,100110.12
2019-03-06T03:39:17.947Z,100108.81
2019-03-06T03:39:49.283Z,100113.58
2019-03-06T03:40:20.596Z,100106.62
2019-03-06T03:40:52.017Z,100102.70
2019-03-06T03:41:23.405Z,100107.95
2019-03-06T03:41:54.804Z,100107.53
2019-03-06T03:42:26.195Z,100112.33
2019-03-06T03:42:57.548Z,100099.49
2019-03-06T03:43:29.042Z,100099.49
2019-03-06T03:44:00.402Z,100120.98
2019-03-06T03:44:31.988Z,100120.98
2019-03-06T03:45:08.143Z,100095.94
2019-03-06T03:45:39.470Z,100091.12
2019-03-06T03:46:11.047Z,100111.03
2019-03-06T03:46:42.343Z,100115.41
2019-03-06T03:47:13.718Z,100109.72
2019-03-06T03:47:45.034Z,100109.72
2019-03-06T03:48:16.396Z,100123.19
2019-03-06T03:48:47.707Z,100123.19
2019-03-06T03:49:19.083Z,100110.28
2019-03-06T03:49:50.393Z,100110.28
2019-03-06T03:50:21.791Z,100125.77
2019-03-06T03:50:53.097Z,100125.77
2019-03-06T03:51:24.450Z,100109.87
2019-03-06T03:51:55.768Z,100127.02
2019-03-06T03:52:28.161Z,100108.48
2019-03-06T03:52:59.821Z,100128.32
2019-03-06T03:53:31.212Z,100128.32
2019-03-06T03:54:02.599Z,100131.34
2019-03-06T03:54:33.996Z,100131.81
2019-03-06T03:55:17.197Z,100122.91
2019-03-06T03:55:48.586Z,100134.51
2019-03-06T03:56:19.987Z,100134.51
2019-03-06T03:56:51.360Z,100136.70
2019-03-06T03:57:22.784Z,100138.83
2019-03-06T03:57:54.187Z,100140.14
2019-03-06T03:58:25.566Z,100146.66
2019-03-06T03:58:56.867Z,100142.75
2019-03-06T03:59:28.232Z,100143.63
2019-03-06T03:59:59.548Z,100144.05
2019-03-06T04:00:30.914Z,100144.39
2019-03-06T04:01:02.224Z,100150.62
2019-03-06T04:01:33.589Z,100150.62
2019-03-06T04:02:05.000Z,100147.97
2019-03-06T04:02:36.370Z,100135.52
2019-03-06T04:03:07.714Z,100135.52
2019-03-06T04:03:39.104Z,100130.79
2019-03-06T04:04:10.488Z,100130.79
2019-03-06T04:04:41.880Z,100153.71
2019-03-06T04:05:13.268Z,100153.71
2019-03-06T04:05:44.648Z,100154.07
2019-03-06T04:06:16.090Z,100161.40
2019-03-06T04:06:47.441Z,100162.29
2019-03-06T04:07:18.826Z,100160.53
2019-03-06T04:07:50.211Z,100160.53
2019-03-06T04:08:21.567Z,100170.55
2019-03-06T04:08:53.069Z,100168.36
2019-03-06T04:09:24.426Z,100165.34
2019-03-06T04:09:55.738Z,100168.81
2019-03-06T04:10:27.101Z,100144.17
2019-03-06T04:10:58.395Z,100144.17
2019-03-06T04:11:29.763Z,100167.92
2019-03-06T04:12:00.961Z,100167.92
2019-03-06T04:12:34.217Z,100170.14
2019-03-06T04:13:05.438Z,100172.75
2019-03-06T04:13:36.689Z,100173.64
2019-03-06T04:14:07.882Z,100173.64
2019-03-06T04:14:39.202Z,100172.33
2019-03-06T04:15:12.891Z,100155.57
2019-03-06T04:15:44.115Z,100177.19
2019-03-06T04:16:15.314Z,100178.58
2019-03-06T04:16:46.859Z,100178.58
2019-03-06T04:17:18.025Z,100180.71
2019-03-06T04:17:49.260Z,100177.33
2019-03-06T04:18:20.508Z,100181.19
2019-03-06T04:18:51.776Z,100181.19
2019-03-06T04:19:23.039Z,100186.02
2019-03-06T04:19:54.403Z,100186.02
2019-03-06T04:20:25.755Z,100189.98
2019-03-06T04:20:57.007Z,100183.95
2019-03-06T04:21:28.363Z,100187.38
2019-03-06T04:21:59.589Z,100184.77
2019-03-06T04:22:31.113Z,100185.98
2019-03-06T04:23:02.366Z,100189.90
2019-03-06T04:23:33.626Z,100189.90
2019-03-06T04:24:04.817Z,100190.31
2019-03-06T04:24:36.073Z,100177.96
2019-03-06T04:25:08.456Z,100174.47
2019-03-06T04:25:39.694Z,100171.50
2019-03-06T04:26:10.875Z,100171.50
2019-03-06T04:26:42.095Z,100194.17
2019-03-06T04:27:13.279Z,100196.84
2019-03-06T04:27:44.504Z,100196.84
2019-03-06T04:28:15.762Z,100182.16
2019-03-06T04:28:46.965Z,100196.78
2019-03-06T04:29:18.373Z,100195.06
2019-03-06T04:29:49.648Z,100195.06
2019-03-06T04:30:20.933Z,100195.53
2019-03-06T04:30:52.442Z,100191.62
2019-03-06T04:31:23.605Z,100163.42
2019-03-06T04:31:54.823Z,100173.44
2019-03-06T04:32:25.994Z,100173.44
2019-03-06T04:32:57.177Z,100191.92
2019-03-06T04:33:28.395Z,100195.40
2019-03-06T04:33:59.791Z,100175.44
2019-03-06T04:34:31.106Z,100189.23
2019-03-06T04:35:03.655Z,100189.23
2019-03-06T04:35:34.904Z,100182.41
2019-03-06T04:36:06.295Z,100201.80
2019-03-06T04:36:37.501Z,100186.76
2019-03-06T04:37:08.756Z,100186.76
2019-03-06T04:37:39.959Z,100203.11
2019-03-06T04:38:11.153Z,100203.11
2019-03-06T04:38:43.869Z,100214.44
2019-03-06T04:39:15.138Z,100184.90
2019-03-06T04:39:46.327Z,100203.92
2019-03-06T04:40:17.515Z,100203.92
2019-03-06T04:40:48.694Z,100203.50
2019-03-06T04:41:19.944Z,100207.41
2019-03-06T04:41:51.171Z,100206.52
2019-03-06T04:42:22.448Z,100207.83
2019-03-06T04:42:53.908Z,100212.58
2019-03-06T04:43:25.146Z,100212.58
2019-03-06T04:43:56.654Z,100203.42
2019-03-06T04:44:27.812Z,100214.70
2019-03-06T04:44:59.017Z,100215.19
2019-03-06T04:45:30.172Z,100204.47
2019-03-06T04:46:01.390Z,100219.93
2019-03-06T04:46:33.546Z,100219.93
2019-03-06T04:47:04.764Z,100216.87
2019-03-06T04:47:35.930Z,100212.49
2019-03-06T04:48:07.137Z,100221.16
2019-03-06T04:48:38.309Z,100229.45
2019-03-06T04:49:09.537Z,100225.12
2019-03-06T04:49:40.877Z,100232.06
2019-03-06T04:50:13.106Z,100226.84
2019-03-06T04:50:44.643Z,100226.84
2019-03-06T04:51:15.871Z,100225.48
2019-03-06T04:51:47.105Z,100226.76
2019-03-06T04:52:18.293Z,100228.56
2019-03-06T04:52:49.583Z,100225.53
2019-03-06T04:53:20.730Z,100225.53
2019-03-06T04:53:51.925Z,100205.60
2019-03-06T04:54:23.085Z,100210.02
2019-03-06T04:54:54.271Z,100220.86
2019-03-06T04:55:26.425Z,100231.64
2019-03-06T04:55:57.628Z,100241.66
2019-03-06T04:56:28.773Z,100237.28
2019-03-06T04:57:00.069Z,100235.50
2019-03-06T04:57:31.544Z,100240.66
2019-03-06T04:58:02.773Z,100239.80
2019-03-06T04:58:33.951Z,100239.80
2019-03-06T04:59:05.173Z,100239.80
2019-03-06T04:59:36.342Z,100250.17
2019-03-06T05:00:22.401Z,100250.17
2019-03-06T05:00:53.974Z,100248.81
2019-03-06T05:01:27.126Z,100241.38
2019-03-06T05:01:58.291Z,100241.38
2019-03-06T05:02:29.583Z,100250.03
2019-03-06T05:03:00.739Z,100231.48
2019-03-06T05:03:31.946Z,100231.48
2019-03-06T05:04:03.118Z,100256.14
2019-03-06T05:04:34.314Z,100236.38
2019-03-06T05:05:05.483Z,100253.53
2019-03-06T05:05:36.682Z,100255.31
2019-03-06T05:06:07.866Z,100257.92
2019-03-06T05:06:39.067Z,100252.23
2019-03-06T05:07:10.250Z,100252.23
2019-03-06T05:07:41.546Z,100250.84
2019-03-06T05:08:12.733Z,100251.73
2019-03-06T05:08:43.908Z,100255.64
2019-03-06T05:09:15.110Z,100250.84
2019-03-06T05:09:46.322Z,100252.58
2019-03-06T05:10:17.504Z,100252.58
2019-03-06T05:10:48.675Z,100249.05
2019-03-06T05:11:19.863Z,100253.73
2019-03-06T05:11:51.039Z,100254.63
2019-03-06T05:12:22.214Z,100254.63
2019-03-06T05:12:53.410Z,100236.05
2019-03-06T05:13:25.310Z,100253.71
2019-03-06T05:13:56.718Z,100253.71
2019-03-06T05:14:28.176Z,100253.17
2019-03-06T05:14:59.644Z,100255.38
2019-03-06T05:15:30.821Z,100255.34
2019-03-06T05:16:02.038Z,100255.34
2019-03-06T05:16:35.102Z,100253.09
2019-03-06T05:17:08.208Z,100255.64
2019-03-06T05:17:41.258Z,100255.64
2019-03-06T05:18:14.356Z,100257.33
2019-03-06T05:18:47.411Z,100257.33
2019-03-06T05:19:18.631Z,100255.96
2019-03-06T05:19:49.783Z,100258.57
2019-03-06T05:20:21.005Z,100258.57
2019-03-06T05:20:52.225Z,100258.57
2019-03-06T05:21:24.230Z,100270.84
2019-03-06T05:21:55.394Z,100270.84
2019-03-06T05:22:26.789Z,100256.83
2019-03-06T05:22:58.011Z,100261.18
2019-03-06T05:23:29.401Z,100255.55
2019-03-06T05:24:00.609Z,100268.59
2019-03-06T05:24:31.940Z,100268.59
2019-03-06T05:25:04.799Z,100265.95
2019-03-06T05:25:36.314Z,100262.89
2019-03-06T05:26:07.570Z,100252.20
2019-03-06T05:26:38.772Z,100262.87
2019-03-06T05:27:09.942Z,100263.28
2019-03-06T05:27:41.163Z,100263.28
2019-03-06T05:28:12.322Z,100255.16
2019-03-06T05:28:43.537Z,100275.43
2019-03-06T05:29:14.700Z,100275.43
2019-03-06T05:29:45.923Z,100275.91
2019-03-06T05:30:18.883Z,100276.80
2019-03-06T05:30:50.106Z,100275.02
2019-03-06T05:31:21.246Z,100275.02
2019-03-06T05:32:33.042Z,100275.38
2019-03-06T05:33:13.796Z,100275.38
2019-03-06T05:33:44.986Z,100289.30
2019-03-06T05:34:16.154Z,100286.66
2019-03-06T05:34:47.591Z,100287.91
2019-03-06T05:35:47.987Z,100282.62
2019-03-06T05:36:48.907Z,100288.31
2019-03-06T05:38:05.088Z,100288.31
2019-03-06T05:38:47.585Z,100292.08
2019-03-06T05:39:18.957Z,100292.08
2019-03-06T05:39:50.189Z,100292.91
2019-03-06T05:40:21.347Z,100292.91
2019-03-06T05:40:53.554Z,100293.34
2019-03-06T05:41:24.854Z,100281.72
2019-03-06T05:41:56.037Z,100293.70
2019-03-06T05:42:27.280Z,100293.70
2019-03-06T05:42:58.473Z,100277.24
2019-03-06T05:43:29.757Z,100305.91
2019-03-06T05:44:00.939Z,100307.15
2019-03-06T05:44:32.133Z,100307.15
2019-03-06T05:45:05.919Z,100306.26
2019-03-06T05:45:37.095Z,100308.84
2019-03-06T05:46:08.275Z,100306.67
2019-03-06T05:46:39.439Z,100306.67
2019-03-06T05:47:10.899Z,100314.08
2019-03-06T05:47:42.095Z,100284.11
2019-03-06T05:48:13.267Z,100284.11
2019-03-06T05:48:44.459Z,100311.38
2019-03-06T05:49:15.632Z,100301.69
2019-03-06T05:49:46.803Z,100306.42
2019-03-06T05:50:18.008Z,100290.47
2019-03-06T05:50:49.185Z,100291.36
2019-03-06T05:51:20.374Z,100306.52
2019-03-06T05:51:51.552Z,100308.27
2019-03-06T05:52:22.744Z,100313.00
2019-03-06T05:52:53.905Z,100312.53
2019-03-06T05:53:25.152Z,100312.53
2019-03-06T05:53:56.624Z,100307.63
2019-03-06T05:54:27.833Z,100307.63
2019-03-06T05:54:58.995Z,100292.48
2019-03-06T05:55:30.210Z,100297.30
2019-03-06T05:56:01.364Z,100297.30
2019-03-06T05:56:32.734Z,100316.28
2019-03-06T05:57:03.896Z,100316.76
2019-03-06T05:57:35.102Z,100316.76
2019-03-06T05:58:06.266Z,100299.44
2019-03-06T05:58:37.476Z,100295.52
2019-03-06T05:59:08.626Z,100295.52
2019-03-06T05:59:39.824Z,100316.34
2019-03-06T06:00:16.136Z,100324.58
2019-03-06T06:00:47.336Z,100324.58
2019-03-06T06:01:18.502Z,100321.08
2019-03-06T06:01:50.009Z,100310.27
2019-03-06T06:02:21.164Z,100310.27
2019-03-06T06:02:52.371Z,100324.48
2019-03-06T06:03:23.526Z,100324.48
2019-03-06T06:03:54.726Z,100330.14
2019-03-06T06:04:25.890Z,100328.84
2019-03-06T06:04:57.100Z,100311.95
2019-03-06T06:05:28.270Z,100311.95
2019-03-06T06:05:59.737Z,100324.32
2019-03-06T06:06:31.010Z,100324.32
2019-03-06T06:07:02.220Z,100314.87
2019-03-06T06:07:33.392Z,100320.50
2019-03-06T06:08:04.584Z,100320.50
2019-03-06T06:08:36.053Z,100327.75
2019-03-06T06:09:07.253Z,100327.27
2019-03-06T06:09:38.423Z,100328.52
2019-03-06T06:10:14.538Z,100330.67
2019-03-06T06:10:45.730Z,100319.04
2019-03-06T06:11:16.909Z,100319.04